createdAt,value
2018-06-28T00:00:05.188Z,965.85
2018-06-28T00:15:04.857Z,965.85
2018-06-28T00:30:04.549Z,966.04
2018-06-28T00:45:04.560Z,966.42
2018-06-28T01:00:04.659Z,966.56
2018-06-28T01:15:04.929Z,966.34
2018-06-28T01:30:09.724Z,966.4
2018-06-28T01:45:04.799Z,966.67
2018-06-28T02:00:04.955Z,966.67
2018-06-28T02:15:04.666Z,966.56
2018-06-28T02:30:04.804Z,966.7
2018-06-28T02:45:04.759Z,966.64
2018-06-28T03:00:05.285Z,966.78
2018-06-28T03:15:05.053Z,967.36
2018-06-28T03:30:04.808Z,967.33
2018-06-28T03:45:04.928Z,967.25
2018-06-28T04:00:04.464Z,967.27
2018-06-28T04:15:04.943Z,967.19
2018-06-28T04:30:10.298Z,966.97
2018-06-28T04:45:05.392Z,966.95
2018-06-28T05:00:04.945Z,966.95
2018-06-28T05:15:04.318Z,966.75
2018-06-28T05:30:04.639Z,966.51
2018-06-28T05:45:04.611Z,966.29
2018-06-28T06:00:05.282Z,966.37
2018-06-28T06:15:04.957Z,966.15
2018-06-28T06:30:04.568Z,965.44
2018-06-28T06:45:04.542Z,964.8
2018-06-28T07:00:04.471Z,964.56
2018-06-28T07:15:04.977Z,963.6
2018-06-28T07:30:04.704Z,962.53
2018-06-28T07:45:04.650Z,960.47
2018-06-28T08:00:04.766Z,966.09
2018-06-28T08:15:04.739Z,964.93
2018-06-28T08:30:04.610Z,965.43
2018-06-28T08:45:04.893Z,964.52
2018-06-28T09:00:05.035Z,964.41
2018-06-28T09:15:04.609Z,965.01
2018-06-28T09:30:04.907Z,964.32
2018-06-28T09:45:04.724Z,963.99
2018-06-28T10:00:04.651Z,964.52
2018-06-28T10:15:05.297Z,965.65
2018-06-28T10:30:05.468Z,965.65
2018-06-28T10:45:04.987Z,965.57
2018-06-28T11:00:04.861Z,965.68
2018-06-28T11:15:04.689Z,966.56
2018-06-28T11:30:04.825Z,966.09
2018-06-28T11:45:05.258Z,966.15
2018-06-28T12:00:04.656Z,966.62
2018-06-28T12:15:05.108Z,960.33
2018-06-28T12:30:04.742Z,960.19
2018-06-28T12:45:04.983Z,966.37
2018-06-28T13:00:04.638Z,966.65
2018-06-28T13:15:04.563Z,966.62
2018-06-28T13:30:05.130Z,966.37
2018-06-28T13:45:04.616Z,966.04
2018-06-28T14:00:04.785Z,965.98
2018-06-28T14:15:05.349Z,960.03
2018-06-28T14:30:04.929Z,959.67
2018-06-28T14:45:05.575Z,959.56
2018-06-28T15:00:05.150Z,959.92
2018-06-28T15:15:05.211Z,959.48
2018-06-28T15:30:04.451Z,966.34
2018-06-28T15:45:07.722Z,959.81
2018-06-28T16:00:04.614Z,960.63
2018-06-28T16:15:05.018Z,960.74
2018-06-28T16:30:04.815Z,960.77
2018-06-28T16:45:04.818Z,960.77
2018-06-28T17:00:05.434Z,960.85
2018-06-28T17:15:04.599Z,960.74
2018-06-28T17:30:05.174Z,960.55
2018-06-28T17:45:05.191Z,960.69
2018-06-28T18:00:05.193Z,960.96
2018-06-28T18:15:04.834Z,961.35
2018-06-28T18:30:04.959Z,961.07
2018-06-28T18:45:04.527Z,961.18
2018-06-28T19:00:04.421Z,961.43
2018-06-28T19:15:04.862Z,962.01
2018-06-28T19:30:04.980Z,962.17
2018-06-28T19:45:04.449Z,963.32
2018-06-28T20:00:20.673Z,964.01
2018-06-28T20:15:05.465Z,964.59
2018-06-28T20:30:04.982Z,964.78
2018-06-28T20:45:04.852Z,964.64
2018-06-28T21:00:04.674Z,964.61
2018-06-28T21:15:04.739Z,964.7
2018-06-28T21:30:04.525Z,964.45
2018-06-28T21:45:04.879Z,964.42
2018-06-28T22:00:05.332Z,964.48
2018-06-28T22:15:05.097Z,964.59
2018-06-28T22:30:05.383Z,964.37
2018-06-28T22:45:04.998Z,964.53
2018-06-28T23:00:04.869Z,964.42
2018-06-28T23:15:05.131Z,964.45
2018-06-28T23:30:04.975Z,964.28
2018-06-28T23:45:05.113Z,964.31
